Accueil
METAR-TAF:

METAR-TAF

Aéroports :

Aéroport international de Norwich

Norwich, Angleterre

latitude: 52-38N, longitude: 001-18E, altitude: 14 m

Observation

Le bulletin a été fait il y a 37 minutes, à 09:20 UTC
Vent 6 kt de nord/nord-ouest, variant entre ouest et nord-est
Température 18°C
Humidité 64%
Pression 1016 hPa
Visibilité 10 km ou plus
Nuages épars à une hauteur de 2400 ft

METAR: EGSH 140920Z 34006KT 270V040 9999 SCT024 18/11 Q1016

Heure: 10:57 (09:57 UTC)

Prévision

Le bulletin a été fait il y a 2 heures et 4 minutes, à 07:53 UTC
Prévision valable du 14 à 09 UTC au 14 à 18 UTC
Vent 7 kt de nord/nord-ouest
Visibilité 10 km ou plus
Quelques nuages à une hauteur de 1200 ft
Nuages épars à une hauteur de 3000 ft

TAF: EGSH 140753Z 1409/1418 34007KT 9999 FEW012 SCT030

Observations et prévisions météorologiques de plus de 4000 aéroports (messages METAR et TAF).

Les stations disponibles sont représentées par des disques jaunes et rouges sur la carte.

Passer la souris dessus pour voir le nom de la station.

Cliquer dessus pour voir les observations et prévisions météorologiques.

Pour changer de carte: cliquez sur les boutons verts avec une croix noire pour zoomer, sur le bouton vert avec un tiret pour effectuer un zoom arrière, ou sur les flèches vertes pour les cartes adjacentes.


METAR-TAF: